Hlavní strana
METAR-TAF:

METAR-TAF

Letiště :

Čita, Rusko

zeměpisná šířka: 52-05N, zeměpisná délka: 113-29E, výška: 685 m

Aktuální stav počasí

Zpráva byla vytvořena před 23 minutami, v 22:30 UTC
Bezvětří
Teplota -28°C
Vlhkost vzduchu 75%
Tlak 1021 hPa
Viditelnost: 4800 m
Polojasno ve výšce 600 ft
kouřmo

METAR: UIAA 132230Z 00000MPS 9999 4800SE BR SCT006 M28/M31 Q1021 R29/490150 NOSIG RMK QBB180 MT OBSC QFE707/0943

Čas: 07:53 (22:53 UTC)

Předpověď počasí

Zpráva byla vytvořena před 2 hodinami a 53 minutami, v 20:00 UTC
Předpověď platná od 13 v 21 UTC do 14 v 21 UTC
Západoseverozápadní vítr 6 kt
Viditelnost: 3100 m
Skoro jasno ve výšce 200 ft
kouřmo, kouř
Dočasný
od 13 v 21 UTC do 14 v 03 UTC
Viditelnost: 1200 m
kouřmo, kouř
Změna
od 14 v 04 UTC do 14 v 06 UTC
Viditelnost 10 km a více

TAF: UIAA 132000Z 1321/1421 30003MPS 3100 BR FU FEW002 TEMPO 1321/1403 1200 BR FU BECMG 1404/1406 9999 NSW NSC

Stav a předpovědi počasí z více než 4 000 letišť (zprávy METAR a TAF).

Červené a žluté tečky na mapě představují dostupné meteorologické stanice.

Když kurzor umístíte na tečku, zobrazí se název stanice.

Pak kliknutím zobrazíte stav a předpověď počasí.

Chcete-li změnit mapu, kliknutím na zelené tlačítko se znaménkem +mapu přiblížíte, kliknutím na zelené tlačítko se znaménkem – mapu oddálíte a kliknutím na zelené šipky přejdete na sousední mapy.


METAR-TAF: